• Join FlightAware (Why Join?)
  • Login
  • US Flag 
07:22AM EST


 

Airport Tracker/Info


-or-


 

Live Flight TrackerFlight Track Log ✈ N536CA ✈ 09-Jul-2013 ✈ X61 - KISM

Flight Track Log - Related Links

Times and Time Zones

All times are in EDT time to prevent confusion due to time zone crossing. See the N536CA flight status page for this flight to view local times or setup timezone preferences in your user account.

Time Position Orientation Groundspeed Altitude Reporting Facility
EDT Latitude Longitude Course Direction KTS MPH feet Rate Location/Type
05:32PM 29.3083 -82.1639 181° South 98 113 3,600  Level Jacksonville Center
05:33PM 29.2811 -82.1642 181° South 95 109 3,500  Descending Jacksonville Center
05:34PM 29.2561 -82.1619 176° South 92 106 3,700  Climbing Jacksonville Center
05:35PM 29.2289 -82.1525 163° South 95 109 3,600 -120 Descending Jacksonville Center
05:36PM 29.2017 -82.1481 172° South 98 113 3,500  Descending Jacksonville Center
05:37PM 29.1744 -82.1433 171° South 95 109 3,600  Climbing Jacksonville Center
05:38PM 29.1475 -82.1364 167° South 94 108 3,600  Level Jacksonville Center
05:39PM 29.1222 -82.1367 181° South 94 108 3,600  Level Jacksonville Center
05:40PM 29.0953 -82.1344 176° South 97 112 3,600  Level Jacksonville Center
05:41PM 29.0639 -82.1325 177° South 97 112 3,600  Level Jacksonville Center
05:42PM 29.0389 -82.1325 180° South 89 102 3,600 -60 Level Jacksonville Center
05:43PM 29.0139 -82.1303 176° South 93 107 3,500 -60 Descending Jacksonville Center
05:44PM 28.9886 -82.1258 171° South 95 109 3,500  Level Jacksonville Center
05:45PM 28.9656 -82.1189 165° South 93 107 3,600  Climbing Jacksonville Center
05:47PM 28.9000 -82.1000 166° South 93 107 3,600 -60 Level Orlando TRACON
05:48PM 28.8833 -82.1000 180° South 96 110 3,400  Descending Orlando TRACON
05:49PM 28.8500 -82.0833 156° South 90 104 3,600 60 Climbing Orlando TRACON
05:50PM 28.8333 -82.0667 139° Southeast 92 106 3,600 -60 Level Orlando TRACON
05:51PM 28.8167 -82.0500 139° Southeast 94 108 3,500 -60 Descending Orlando TRACON
05:52PM 28.7833 -82.0333 156° South 95 109 3,500  Level Orlando TRACON
05:53PM 28.7667 -82.0333 180° South 94 108 3,600  Climbing Orlando TRACON
05:54PM 28.7500 -82.0167 139° Southeast 96 110 3,500 -60 Descending Orlando TRACON
05:55PM 28.7167 -82.0000 156° South 96 110 3,500  Level Orlando TRACON
05:56PM 28.6833 -82.0000 180° South 98 113 3,500  Level Orlando TRACON
05:57PM 28.6667 -82.0000 180° South 97 112 3,600  Climbing Orlando TRACON
05:58PM 28.6333 -81.9833 156° South 98 113 3,600 -60 Level Orlando TRACON
05:59PM 28.6167 -81.9667 139° Southeast 98 113 3,500  Descending Orlando TRACON
06:00PM 28.5833 -81.9667 180° South 96 110 3,600  Climbing Orlando TRACON
06:01PM 28.5667 -81.9667 180° South 100 115 3,500 -60 Descending Orlando TRACON
06:02PM 28.5333 -81.9500 156° South 96 110 3,500  Level Orlando TRACON
06:03PM 28.5167 -81.9333 139° Southeast 92 106 3,500  Level Orlando TRACON
06:04PM 28.4833 -81.9167 156° South 96 110 3,500  Level Orlando TRACON
06:05PM 28.4667 -81.9167 180° South 93 107 3,500  Level Orlando TRACON
06:06PM 28.4333 -81.9000 156° South 90 104 3,500  Level Orlando TRACON
06:07PM 28.4167 -81.8833 139° Southeast 100 115 3,500  Level Orlando TRACON
06:08PM 28.3833 -81.8833 180° South 93 107 3,500  Level Orlando TRACON
06:09PM 28.3667 -81.8667 139° Southeast 97 112 3,500  Level Orlando TRACON
06:10PM 28.3333 -81.8500 156° South 93 107 3,600 -120 Climbing Orlando TRACON
06:11PM 28.3167 -81.8500 180° South 100 115 3,300 -300 Descending Orlando TRACON
06:12PM 28.2833 -81.8333 156° South 97 112 3,100 -180 Descending Orlando TRACON
06:13PM 28.2667 -81.8167 139° Southeast 96 110 3,000 -180 Descending Orlando TRACON
06:14PM 28.2500 -81.8000 139° Southeast 88 101 2,800 -240 Descending Orlando TRACON
06:15PM 28.2333 -81.7667 120° Southeast 88 101 2,600 -240 Descending Orlando TRACON
06:16PM 28.2333 -81.7333 90° East 88 101 2,400 -120 Descending Orlando TRACON
06:17PM 28.2167 -81.7333 180° South 103 119 2,400 -60 Level Orlando TRACON
06:18PM 28.2333 -81.7500 319° Northwest 111 128 2,300 -120 Descending Orlando TRACON
06:19PM 28.2500 -81.7333 41° Northeast 92 106 2,200 -60 Descending Orlando TRACON
06:20PM 28.2500 -81.7167 90° East 85 98 2,200  Level Orlando TRACON
06:21PM 28.2333 -81.6833 120° Southeast 90 104 2,200 -180 Level Orlando TRACON
06:22PM 28.2333 -81.6667 90° East 88 101 1,900 -180 Descending Orlando TRACON
06:23PM 28.2333 -81.6333 90° East 88 101 1,900 -180 Level Orlando TRACON
06:24PM 28.2333 -81.6000 90° East 87 100 1,600 -300 Descending Orlando TRACON
06:25PM 28.2333 -81.5833 90° East 87 100 1,400 -120 Descending Orlando TRACON
06:26PM 28.2333 -81.5500 90° East 86 99 1,400 -120 Level Orlando TRACON
06:27PM 28.2333 -81.5333 90° East 89 102 1,200 -240 Descending Orlando TRACON